Time;durP1;ratioP1;P1;durP2;ratioP2;P2;SDS_P1;SDS_P2;PMS_P1;PMS_P2;Temp;Humidity;BMP_temperature;BMP_pressure;BME280_temperature;BME280_humidity;BME280_pressure;Samples;Min_cycle;Max_cycle;Signal;HPM_P1;HPM_P2
2022/08/23 00:01:12;;;;;;;7.93;4.38;;;20.70;99.90;;;;;;6337992;22;20003;-79
2022/08/23 00:03:37;;;;;;;8.57;4.22;;;20.70;99.90;;;;;;6338901;22;20037;-78
2022/08/23 00:06:04;;;;;;;8.65;3.80;;;20.70;99.90;;;;;;6338687;22;20006;-78
2022/08/23 00:08:34;;;;;;;7.28;4.35;;;20.70;99.90;;;;;;6337579;22;20005;-78
2022/08/23 00:11:00;;;;;;;6.43;4.22;;;20.70;99.90;;;;;;6310899;22;20048;-78
2022/08/23 00:13:26;;;;;;;8.02;4.68;;;20.70;99.90;;;;;;6338316;22;20026;-78
2022/08/23 00:15:52;;;;;;;7.03;4.15;;;20.80;99.90;;;;;;6338032;22;20010;-78
2022/08/23 00:18:19;;;;;;;6.63;4.38;;;20.80;99.90;;;;;;6338616;22;20300;-78
2022/08/23 00:20:45;;;;;;;8.63;4.47;;;20.80;99.90;;;;;;6338018;22;20323;-79
2022/08/23 00:23:11;;;;;;;4.25;3.85;;;20.80;99.90;;;;;;6338247;22;20449;-76
2022/08/23 00:25:36;;;;;;;5.68;4.47;;;20.80;99.90;;;;;;6338209;22;20014;-77
2022/08/23 00:28:02;;;;;;;5.47;4.35;;;20.90;99.90;;;;;;6337485;22;20026;-77
2022/08/23 00:30:28;;;;;;;6.22;4.75;;;20.80;99.90;;;;;;6337619;22;20038;-77
2022/08/23 00:32:54;;;;;;;6.03;4.35;;;20.80;99.90;;;;;;6351390;22;19995;-76
2022/08/23 00:35:20;;;;;;;6.28;4.45;;;20.80;99.90;;;;;;6341996;22;20003;-77
2022/08/23 00:37:46;;;;;;;6.57;4.60;;;20.80;99.90;;;;;;6338436;22;20446;-76
2022/08/23 00:40:14;;;;;;;11.23;4.82;;;20.80;99.90;;;;;;6338149;22;20003;-76
2022/08/23 00:48:34;;;;;;;7.90;6.73;;;20.80;99.90;;;;;;6347620;22;20414;-78
2022/08/23 00:51:17;;;;;;;7.93;6.40;;;20.80;99.90;;;;;;6342229;22;20229;-77
2022/08/23 00:53:53;;;;;;;7.90;6.47;;;20.70;99.90;;;;;;6338647;22;20069;-78
2022/08/23 00:56:22;;;;;;;9.52;6.75;;;20.60;99.90;;;;;;6337601;22;20315;-77
2022/08/23 00:58:48;;;;;;;7.47;6.60;;;20.50;99.90;;;;;;6338700;22;20003;-78
2022/08/23 01:01:14;;;;;;;7.95;7.22;;;20.50;99.90;;;;;;6338277;22;20326;-78
2022/08/23 01:03:43;;;;;;;9.35;7.72;;;20.40;99.90;;;;;;6337692;22;19999;-78
2022/08/23 01:06:14;;;;;;;9.55;8.00;;;20.20;99.90;;;;;;6338906;22;20436;-78
2022/08/23 01:08:45;;;;;;;9.20;8.05;;;20.10;99.90;;;;;;6344893;22;20025;-78
2022/08/23 01:11:17;;;;;;;9.30;7.45;;;19.90;99.90;;;;;;6341094;22;20007;-78
2022/08/23 01:13:55;;;;;;;7.90;7.13;;;19.80;99.90;;;;;;6357334;22;19999;-78
2022/08/23 01:16:54;;;;;;;10.07;8.98;;;19.60;99.90;;;;;;6361623;22;20013;-77
2022/08/23 01:19:36;;;;;;;14.73;9.30;;;19.60;99.90;;;;;;6333548;22;20015;-77
2022/08/23 01:22:30;;;;;;;10.30;8.50;;;19.40;99.90;;;;;;6363526;22;20007;-78
2022/08/23 01:24:59;;;;;;;12.68;8.55;;;19.40;99.90;;;;;;6363955;22;19987;-77
2022/08/23 01:27:26;;;;;;;11.93;7.68;;;19.30;99.90;;;;;;6347387;22;20011;-77
2022/08/23 01:29:51;;;;;;;8.85;7.85;;;19.30;99.90;;;;;;6342148;22;20430;-78
2022/08/23 01:32:17;;;;;;;28.08;8.55;;;19.20;99.90;;;;;;6338134;22;19999;-78
2022/08/23 01:34:42;;;;;;;10.48;9.27;;;19.20;99.90;;;;;;6338900;22;20037;-77
2022/08/23 01:37:08;;;;;;;10.32;7.68;;;19.20;99.90;;;;;;6337892;22;20026;-78
2022/08/23 01:39:34;;;;;;;10.20;8.25;;;19.10;99.90;;;;;;6337425;22;19999;-77
2022/08/23 01:42:01;;;;;;;14.55;7.72;;;19.10;99.90;;;;;;6338425;22;20002;-77
2022/08/23 01:44:26;;;;;;;9.52;8.00;;;19.20;99.90;;;;;;6338021;22;20006;-78
2022/08/23 01:46:52;;;;;;;10.15;7.95;;;19.20;99.90;;;;;;6336716;22;20007;-77
2022/08/23 01:49:19;;;;;;;9.82;7.40;;;19.20;99.90;;;;;;6337058;22;20005;-76
2022/08/23 01:51:45;;;;;;;9.93;7.43;;;19.20;99.90;;;;;;6338033;22;20083;-76
2022/08/23 01:54:11;;;;;;;8.07;6.93;;;19.20;99.90;;;;;;6336670;22;20094;-77
2022/08/23 01:56:39;;;;;;;8.75;7.50;;;19.20;99.90;;;;;;6337926;22;20030;-78
2022/08/23 01:59:06;;;;;;;9.70;7.90;;;19.20;99.90;;;;;;6337411;22;20002;-78
2022/08/23 02:01:32;;;;;;;10.23;7.78;;;19.30;99.90;;;;;;6337512;22;20438;-77
2022/08/23 02:03:58;;;;;;;8.35;7.55;;;19.30;99.90;;;;;;6338290;22;20074;-77
2022/08/23 02:06:23;;;;;;;15.40;7.60;;;19.30;99.90;;;;;;6339236;22;20007;-77
2022/08/23 02:09:01;;;;;;;9.77;7.05;;;19.30;99.90;;;;;;6342599;22;19999;-77
2022/08/23 02:11:31;;;;;;;7.32;6.63;;;19.30;99.90;;;;;;6339257;22;20006;-77
2022/08/23 02:13:59;;;;;;;10.32;7.38;;;19.40;99.90;;;;;;6339001;22;20024;-77
2022/08/23 02:16:32;;;;;;;9.68;7.95;;;19.40;99.90;;;;;;6338820;22;20034;-77
2022/08/23 02:19:01;;;;;;;8.65;7.00;;;19.50;99.90;;;;;;6339476;22;20495;-77
2022/08/23 02:21:30;;;;;;;7.90;7.00;;;19.50;99.90;;;;;;6338545;22;20007;-78
2022/08/23 02:24:03;;;;;;;9.20;7.07;;;19.50;99.90;;;;;;6339580;22;19995;-78
2022/08/23 02:26:28;;;;;;;11.25;7.55;;;19.50;99.90;;;;;;6338805;22;20019;-78
2022/08/23 02:28:54;;;;;;;7.57;6.72;;;19.50;99.90;;;;;;6338271;22;20056;-78
2022/08/23 02:31:20;;;;;;;10.60;7.38;;;19.60;99.90;;;;;;6339290;22;19999;-78
2022/08/23 02:33:45;;;;;;;7.97;6.47;;;19.60;99.90;;;;;;6339497;22;20010;-77
2022/08/23 02:36:11;;;;;;;7.18;6.45;;;19.60;99.90;;;;;;6338667;22;20006;-78
2022/08/23 02:38:38;;;;;;;7.57;6.15;;;19.60;99.90;;;;;;6339519;22;20003;-78
2022/08/23 02:41:03;;;;;;;9.15;6.55;;;19.60;99.90;;;;;;6339756;22;20148;-78
2022/08/23 02:43:29;;;;;;;7.13;6.13;;;19.60;99.90;;;;;;6347951;22;19999;-79
2022/08/23 02:46:05;;;;;;;7.88;6.15;;;19.70;99.90;;;;;;6346118;22;20017;-79
2022/08/23 02:48:33;;;;;;;7.40;6.63;;;19.70;99.90;;;;;;6338795;22;20064;-78
2022/08/23 02:51:05;;;;;;;7.13;6.32;;;19.70;99.90;;;;;;6339549;22;20003;-78
2022/08/23 02:53:34;;;;;;;7.72;5.82;;;19.80;99.90;;;;;;6342020;22;19999;-78
2022/08/23 02:56:00;;;;;;;14.90;6.63;;;19.80;99.90;;;;;;6347720;22;20007;-77
2022/08/23 02:58:26;;;;;;;8.13;6.13;;;19.80;99.90;;;;;;6344301;22;20017;-78
2022/08/23 03:00:52;;;;;;;7.35;6.10;;;19.80;99.90;;;;;;6358293;22;20443;-77
2022/08/23 03:03:18;;;;;;;8.18;5.90;;;19.90;99.90;;;;;;6338961;22;20003;-77
2022/08/23 03:05:44;;;;;;;12.57;6.07;;;19.90;99.90;;;;;;6338522;22;20457;-78
2022/08/23 03:08:10;;;;;;;8.75;6.32;;;19.80;99.90;;;;;;6339068;22;20001;-78
2022/08/23 03:10:40;;;;;;;8.43;6.18;;;19.80;99.90;;;;;;6338160;22;20041;-77
2022/08/23 03:13:07;;;;;;;8.45;6.07;;;19.90;99.90;;;;;;6339333;22;20056;-78
2022/08/23 03:15:32;;;;;;;10.57;5.78;;;19.80;99.90;;;;;;6339453;22;19994;-78
2022/08/23 03:17:58;;;;;;;9.00;5.82;;;19.80;99.90;;;;;;6337932;22;20376;-78
2022/08/23 03:20:24;;;;;;;6.43;5.78;;;19.80;99.90;;;;;;6338537;22;19999;-76
2022/08/23 03:22:50;;;;;;;7.07;5.90;;;19.80;99.90;;;;;;6339326;22;20010;-77
2022/08/23 03:25:15;;;;;;;9.30;5.60;;;19.90;99.90;;;;;;6337721;22;20340;-78
2022/08/23 03:27:42;;;;;;;7.75;5.90;;;19.90;99.90;;;;;;6339307;22;20041;-78
2022/08/23 03:30:08;;;;;;;9.30;5.97;;;19.90;99.90;;;;;;6339166;22;20003;-78
2022/08/23 03:32:34;;;;;;;7.55;4.90;;;19.90;99.90;;;;;;6338588;22;20082;-77
2022/08/23 03:35:03;;;;;;;8.18;5.72;;;19.90;99.90;;;;;;6339539;22;20034;-77
2022/08/23 03:37:28;;;;;;;6.75;6.00;;;19.90;99.90;;;;;;6337729;22;20006;-77
2022/08/23 03:39:54;;;;;;;10.40;6.13;;;19.90;99.90;;;;;;6339091;22;20033;-77
2022/08/23 03:42:19;;;;;;;6.47;5.63;;;19.90;99.90;;;;;;6338749;22;19999;-77
2022/08/23 03:44:45;;;;;;;12.75;6.00;;;19.90;99.90;;;;;;6338257;22;20731;-78
2022/08/23 03:47:11;;;;;;;6.68;6.00;;;19.90;99.90;;;;;;6338550;22;20018;-77
2022/08/23 03:49:38;;;;;;;7.03;6.07;;;19.90;99.90;;;;;;6338982;22;20360;-77
2022/08/23 03:52:04;;;;;;;10.55;6.68;;;19.90;99.90;;;;;;6338795;22;20002;-78
2022/08/23 03:54:31;;;;;;;11.45;7.10;;;19.90;99.90;;;;;;6339162;22;20528;-77
2022/08/23 03:56:59;;;;;;;7.75;6.32;;;19.90;99.90;;;;;;6338873;22;20005;-78
2022/08/23 03:59:27;;;;;;;7.40;6.22;;;19.90;99.90;;;;;;6337365;22;20368;-77
2022/08/23 04:01:53;;;;;;;8.93;6.65;;;19.90;99.90;;;;;;6338543;22;20003;-78
2022/08/23 04:04:18;;;;;;;7.57;6.22;;;19.90;99.90;;;;;;6338161;22;20003;-78
2022/08/23 04:06:45;;;;;;;7.57;6.90;;;19.90;99.90;;;;;;6337466;22;20034;-79
2022/08/23 04:09:12;;;;;;;7.32;6.63;;;19.90;99.90;;;;;;6338046;22;20068;-79
2022/08/23 04:11:38;;;;;;;8.73;6.82;;;19.90;99.90;;;;;;6338492;22;20071;-79
2022/08/23 04:14:05;;;;;;;7.68;6.80;;;19.90;99.90;;;;;;6338010;22;20002;-78
2022/08/23 04:16:36;;;;;;;12.50;7.35;;;19.90;99.90;;;;;;6337765;22;20026;-78
2022/08/23 04:19:08;;;;;;;9.48;6.88;;;19.90;99.90;;;;;;6338682;22;20033;-79
2022/08/23 04:21:36;;;;;;;10.23;6.90;;;19.90;99.90;;;;;;6337607;22;20002;-80
2022/08/23 04:24:02;;;;;;;11.15;7.32;;;19.80;99.90;;;;;;6338618;22;20082;-79
2022/08/23 04:26:28;;;;;;;8.40;6.60;;;19.80;99.90;;;;;;6337284;22;20029;-79
2022/08/23 04:28:55;;;;;;;8.15;7.35;;;19.90;99.90;;;;;;6337037;22;20098;-80
2022/08/23 04:31:22;;;;;;;7.90;6.93;;;19.80;99.90;;;;;;6337912;22;20013;-79
2022/08/23 04:33:48;;;;;;;7.63;6.88;;;19.90;99.90;;;;;;6337908;22;20082;-80
2022/08/23 04:36:13;;;;;;;10.98;7.22;;;19.80;99.90;;;;;;6337889;22;20034;-80
2022/08/23 04:38:39;;;;;;;7.32;6.70;;;19.80;99.90;;;;;;6338339;22;20003;-79
2022/08/23 04:43:49;;;;;;;7.95;7.13;;;19.90;99.90;;;;;;6338257;22;20010;-78
2022/08/23 04:46:16;;;;;;;8.35;7.00;;;19.80;99.90;;;;;;6337990;22;20337;-79
2022/08/23 04:48:43;;;;;;;10.65;7.55;;;19.80;99.90;;;;;;6337220;22;20441;-79
2022/08/23 04:51:09;;;;;;;12.60;8.10;;;19.80;99.90;;;;;;6338309;22;20007;-78
2022/08/23 04:53:35;;;;;;;8.88;7.22;;;19.80;99.90;;;;;;6341396;22;20010;-78
2022/08/23 04:56:02;;;;;;;8.45;7.03;;;19.80;99.90;;;;;;6349438;22;19999;-79
2022/08/23 04:58:29;;;;;;;9.43;7.03;;;19.80;99.90;;;;;;6338297;22;20481;-80
2022/08/23 05:00:58;;;;;;;8.55;7.30;;;19.80;99.90;;;;;;6338956;22;20007;-80
2022/08/23 05:03:25;;;;;;;9.88;6.75;;;19.80;99.90;;;;;;6337733;22;20322;-79
2022/08/23 05:05:52;;;;;;;8.60;6.97;;;19.80;99.90;;;;;;6344723;22;20022;-78
2022/08/23 05:08:18;;;;;;;7.40;6.70;;;19.80;99.90;;;;;;6339809;22;20052;-81
2022/08/23 05:10:44;;;;;;;7.85;7.07;;;19.80;99.90;;;;;;6345276;22;20026;-78
2022/08/23 05:13:10;;;;;;;9.73;7.35;;;19.80;99.90;;;;;;6339286;22;20411;-79
2022/08/23 05:15:38;;;;;;;9.25;7.40;;;19.90;99.90;;;;;;6338135;22;20010;-80
2022/08/23 05:18:04;;;;;;;10.32;7.28;;;19.90;99.90;;;;;;6337069;22;20082;-79
2022/08/23 05:20:30;;;;;;;10.00;7.20;;;19.90;99.90;;;;;;6337452;22;20034;-80
2022/08/23 05:22:56;;;;;;;9.35;6.82;;;20.00;99.90;;;;;;6337789;22;19999;-79
2022/08/23 05:25:21;;;;;;;13.02;7.95;;;20.00;99.90;;;;;;6337404;22;20042;-79
2022/08/23 05:27:47;;;;;;;9.02;7.28;;;20.10;99.90;;;;;;6338055;22;20041;-78
2022/08/23 05:30:13;;;;;;;9.07;7.10;;;20.10;99.90;;;;;;6336604;22;20326;-79
2022/08/23 05:32:39;;;;;;;14.27;8.10;;;20.10;99.90;;;;;;6338703;22;20003;-77
2022/08/23 05:35:05;;;;;;;13.68;7.43;;;20.20;99.90;;;;;;6338410;22;20030;-78
2022/08/23 05:37:30;;;;;;;8.57;7.68;;;20.20;99.90;;;;;;6341930;22;20026;-77
2022/08/23 05:39:56;;;;;;;10.25;7.55;;;20.30;99.90;;;;;;6338991;22;20438;-77
2022/08/23 05:42:21;;;;;;;8.50;7.70;;;20.30;99.90;;;;;;6348186;22;20052;-77
2022/08/23 05:44:47;;;;;;;9.45;7.80;;;20.30;99.90;;;;;;6360440;22;20025;-77
2022/08/23 05:47:14;;;;;;;11.32;8.80;;;20.30;99.90;;;;;;6360182;22;20279;-78
2022/08/23 05:49:40;;;;;;;10.85;8.32;;;20.40;99.90;;;;;;6362697;22;19995;-78
2022/08/23 05:52:08;;;;;;;10.30;9.35;;;20.40;99.90;;;;;;6359974;22;20014;-80
2022/08/23 05:54:34;;;;;;;11.63;9.82;;;20.50;99.90;;;;;;6363686;22;19999;-77
2022/08/23 05:56:59;;;;;;;11.80;10.48;;;20.50;99.90;;;;;;6349036;22;20010;-77
2022/08/23 05:59:25;;;;;;;14.07;11.10;;;20.40;99.90;;;;;;6341909;22;20006;-77
2022/08/23 06:01:51;;;;;;;12.68;9.60;;;20.40;99.90;;;;;;6338731;22;20007;-78
2022/08/23 06:04:16;;;;;;;17.15;10.18;;;20.50;99.90;;;;;;6338107;22;19995;-76
2022/08/23 06:06:43;;;;;;;14.60;10.15;;;20.30;99.90;;;;;;6336425;22;20017;-78
2022/08/23 06:09:12;;;;;;;12.38;9.57;;;20.20;99.90;;;;;;6335974;22;20015;-78
2022/08/23 06:11:38;;;;;;;11.23;9.68;;;20.20;99.90;;;;;;6337080;22;20013;-76
2022/08/23 06:14:06;;;;;;;14.43;9.57;;;20.20;99.90;;;;;;6336613;22;20006;-77
2022/08/23 06:16:39;;;;;;;9.07;8.27;;;20.10;99.90;;;;;;6337537;22;20331;-77
2022/08/23 06:19:07;;;;;;;15.68;10.48;;;20.20;99.90;;;;;;6337807;22;20007;-79
2022/08/23 06:21:34;;;;;;;13.18;9.80;;;20.30;99.90;;;;;;6336975;22;19998;-77
2022/08/23 06:24:00;;;;;;;13.52;10.05;;;20.30;99.90;;;;;;6337425;22;20085;-77
2022/08/23 06:26:32;;;;;;;13.05;9.77;;;20.30;99.90;;;;;;6335989;22;20029;-78
2022/08/23 06:29:01;;;;;;;14.13;10.88;;;20.30;99.90;;;;;;6337463;22;20048;-77
2022/08/23 06:34:32;;;;;;;14.23;10.38;;;20.40;99.90;;;;;;6336379;22;20010;-76
2022/08/23 06:37:03;;;;;;;13.18;9.43;;;20.50;99.90;;;;;;6337746;22;19999;-78
2022/08/23 06:39:38;;;;;;;20.00;12.10;;;20.60;99.90;;;;;;6337228;22;20084;-77
2022/08/23 06:42:14;;;;;;;10.95;9.68;;;20.70;99.90;;;;;;6336590;22;20010;-77
2022/08/23 06:44:40;;;;;;;13.85;9.75;;;20.80;99.90;;;;;;6337386;22;20041;-77
2022/08/23 06:47:07;;;;;;;17.73;10.73;;;20.90;99.90;;;;;;6336740;22;20007;-77
2022/08/23 06:49:33;;;;;;;11.70;9.80;;;20.90;99.90;;;;;;6336231;22;20425;-77
2022/08/23 06:52:00;;;;;;;11.18;9.00;;;20.90;99.90;;;;;;6338404;22;20007;-77
2022/08/23 06:54:30;;;;;;;13.73;9.60;;;21.00;99.90;;;;;;6338072;22;19998;-77
2022/08/23 06:56:57;;;;;;;10.23;9.15;;;21.00;99.90;;;;;;6339360;22;20323;-77
2022/08/23 06:59:22;;;;;;;10.60;9.00;;;21.10;99.90;;;;;;6339012;22;20322;-77
2022/08/23 07:01:55;;;;;;;17.85;11.02;;;21.10;99.90;;;;;;6338557;22;20037;-78
2022/08/23 07:04:28;;;;;;;11.35;8.30;;;21.20;99.90;;;;;;6339158;22;20190;-78
2022/08/23 07:06:54;;;;;;;12.13;9.68;;;21.30;99.90;;;;;;6343019;22;20454;-77
2022/08/23 07:09:20;;;;;;;11.25;9.88;;;21.30;99.90;;;;;;6338382;22;20104;-77
2022/08/23 07:11:46;;;;;;;14.02;9.93;;;21.40;99.90;;;;;;6338079;22;20002;-79
2022/08/23 07:14:15;;;;;;;10.23;8.32;;;21.40;99.90;;;;;;6338615;22;20034;-77
2022/08/23 07:17:00;;;;;;;10.48;9.13;;;21.50;99.90;;;;;;6339258;22;20331;-78
2022/08/23 07:19:29;;;;;;;13.48;9.75;;;21.60;99.90;;;;;;6338482;22;20002;-76
2022/08/23 07:21:55;;;;;;;16.45;10.55;;;21.80;99.90;;;;;;6347515;22;20013;-77
2022/08/23 07:24:21;;;;;;;16.30;9.90;;;21.80;99.90;;;;;;6341751;22;20006;-77
2022/08/23 07:26:49;;;;;;;10.07;9.05;;;21.80;99.90;;;;;;6338495;22;20360;-78
2022/08/23 07:29:16;;;;;;;13.70;9.77;;;22.00;99.90;;;;;;6338762;22;20002;-78
2022/08/23 07:31:44;;;;;;;12.15;9.43;;;22.00;99.90;;;;;;6337966;22;20034;-77
2022/08/23 07:34:10;;;;;;;9.52;8.55;;;22.00;99.90;;;;;;6337904;22;20044;-76
2022/08/23 07:36:37;;;;;;;11.90;7.63;;;22.10;99.90;;;;;;6338037;22;20419;-79
2022/08/23 07:39:05;;;;;;;10.38;7.47;;;22.10;99.90;;;;;;6311840;22;20040;-79
2022/08/23 07:41:30;;;;;;;9.55;7.72;;;22.10;99.90;;;;;;6339950;22;20010;-79
2022/08/23 07:44:00;;;;;;;14.25;8.32;;;22.10;99.90;;;;;;6338725;22;20003;-75
2022/08/23 07:46:26;;;;;;;12.88;10.00;;;22.30;99.90;;;;;;6338345;22;20447;-76
2022/08/23 07:48:52;;;;;;;8.93;8.07;;;22.20;99.90;;;;;;6338959;22;19998;-77
2022/08/23 07:51:18;;;;;;;8.52;7.15;;;22.30;99.90;;;;;;6337978;22;20090;-77
2022/08/23 07:53:44;;;;;;;9.43;7.82;;;22.30;99.90;;;;;;6338432;22;20369;-78
2022/08/23 07:56:12;;;;;;;11.25;7.65;;;22.50;99.90;;;;;;6339008;22;20040;-78
2022/08/23 07:58:38;;;;;;;10.05;7.30;;;22.60;99.90;;;;;;6337862;22;20002;-74
2022/08/23 08:01:23;;;;;;;10.93;6.13;;;22.50;99.90;;;;;;6338778;22;20007;-78
2022/08/23 08:03:53;;;;;;;14.85;8.40;;;22.70;99.90;;;;;;6338603;22;20021;-78
2022/08/23 08:06:23;;;;;;;11.20;9.10;;;22.80;99.90;;;;;;6337665;22;20075;-74
2022/08/23 08:08:50;;;;;;;8.88;7.57;;;22.90;99.90;;;;;;6338311;22;20002;-74
2022/08/23 08:11:20;;;;;;;9.95;7.28;;;22.90;99.90;;;;;;6338398;22;20045;-75
2022/08/23 08:13:47;;;;;;;10.88;6.82;;;23.00;99.90;;;;;;6337897;22;19998;-75
2022/08/23 08:16:31;;;;;;;7.65;6.65;;;23.10;99.90;;;;;;6337804;22;20011;-75
2022/08/23 08:19:00;;;;;;;7.57;4.90;;;23.10;99.90;;;;;;6337833;22;20003;-74
2022/08/23 08:21:27;;;;;;;5.72;4.40;;;23.20;99.90;;;;;;6337836;22;20422;-74
2022/08/23 08:23:53;;;;;;;4.90;4.40;;;23.20;99.90;;;;;;6338704;22;20055;-74
2022/08/23 08:26:19;;;;;;;6.13;5.00;;;23.30;99.90;;;;;;6336722;22;20022;-74
2022/08/23 08:28:45;;;;;;;8.13;4.45;;;23.30;99.90;;;;;;6338562;22;20003;-76
2022/08/23 08:31:12;;;;;;;8.13;3.33;;;23.30;99.90;;;;;;6337553;22;20049;-75
2022/08/23 08:33:38;;;;;;;6.07;3.42;;;23.40;99.90;;;;;;6332674;22;20051;-74
2022/08/23 08:36:06;;;;;;;5.15;3.70;;;23.40;99.90;;;;;;6337989;22;19999;-75
2022/08/23 08:38:32;;;;;;;6.28;4.20;;;23.40;99.90;;;;;;6337659;22;20009;-75
2022/08/23 08:41:08;;;;;;;9.95;4.53;;;23.50;99.90;;;;;;6337270;22;20415;-73
2022/08/23 08:43:42;;;;;;;6.22;3.30;;;23.60;99.90;;;;;;6337563;22;20003;-74
2022/08/23 08:46:18;;;;;;;6.90;4.00;;;23.70;99.90;;;;;;6338210;22;20060;-74
2022/08/23 08:48:49;;;;;;;8.93;4.35;;;23.80;99.90;;;;;;6337075;22;20003;-74
2022/08/23 08:51:29;;;;;;;7.72;4.88;;;23.90;99.90;;;;;;6336882;22;20006;-75
2022/08/23 08:53:59;;;;;;;6.75;5.30;;;23.90;99.90;;;;;;6337092;22;20037;-73
2022/08/23 08:56:31;;;;;;;8.23;4.85;;;24.10;99.90;;;;;;6336480;22;20074;-74
2022/08/23 08:59:01;;;;;;;6.78;5.35;;;24.10;99.90;;;;;;6336609;22;20315;-74
2022/08/23 09:01:28;;;;;;;10.02;5.20;;;24.20;99.90;;;;;;6337075;22;19998;-75
2022/08/23 09:03:55;;;;;;;6.57;5.05;;;24.20;99.90;;;;;;6338372;22;20010;-75
2022/08/23 09:06:34;;;;;;;12.38;5.28;;;24.30;99.90;;;;;;6337499;22;20007;-73
2022/08/23 09:09:10;;;;;;;6.03;4.10;;;24.40;99.90;;;;;;6336954;22;20454;-73
2022/08/23 09:12:11;;;;;;;5.55;3.88;;;24.40;99.90;;;;;;6338211;22;19995;-75
2022/08/23 09:14:52;;;;;;;9.48;3.67;;;24.60;99.90;;;;;;6337627;22;20438;-74
2022/08/23 09:17:50;;;;;;;4.40;2.45;;;24.70;99.90;;;;;;6337542;22;20005;-76
2022/08/23 09:20:19;;;;;;;7.10;3.13;;;24.80;99.90;;;;;;6338070;22;20051;-75
2022/08/23 09:22:53;;;;;;;7.60;3.90;;;25.00;99.90;;;;;;6338202;22;19994;-75
2022/08/23 09:25:20;;;;;;;3.90;2.83;;;25.20;99.90;;;;;;6337580;22;19999;-73
2022/08/23 09:27:45;;;;;;;8.10;3.47;;;25.40;99.90;;;;;;6338067;22;20007;-76
2022/08/23 09:30:15;;;;;;;6.60;3.17;;;25.60;99.90;;;;;;6336928;22;20082;-74
2022/08/23 09:32:44;;;;;;;6.53;3.03;;;25.90;99.90;;;;;;6338590;22;20002;-76
2022/08/23 09:35:12;;;;;;;7.57;2.67;;;26.20;99.90;;;;;;6337630;22;20033;-76
2022/08/23 09:37:52;;;;;;;7.70;3.20;;;26.40;99.20;;;;;;6337121;22;20007;-75
2022/08/23 09:40:37;;;;;;;6.57;2.75;;;26.70;98.50;;;;;;6337476;22;20006;-74
2022/08/23 09:43:17;;;;;;;8.30;2.95;;;26.90;98.30;;;;;;6337839;22;20010;-75
2022/08/23 09:45:49;;;;;;;4.17;2.60;;;27.00;97.50;;;;;;6337494;22;20034;-74
2022/08/23 09:48:40;;;;;;;7.10;2.92;;;27.00;97.80;;;;;;6337359;22;20217;-76
2022/08/23 09:51:28;;;;;;;4.53;2.50;;;27.10;97.90;;;;;;6336963;22;20319;-76
2022/08/23 09:54:05;;;;;;;6.05;2.38;;;27.20;97.80;;;;;;6337760;22;20002;-76
2022/08/23 09:56:36;;;;;;;9.32;3.58;;;27.30;97.70;;;;;;6337444;22;20003;-76
2022/08/23 09:59:18;;;;;;;17.80;3.03;;;27.40;97.20;;;;;;6335585;22;20018;-76
2022/08/23 10:01:46;;;;;;;6.13;2.83;;;27.40;97.30;;;;;;6337754;22;20002;-76
2022/08/23 10:04:16;;;;;;;5.95;2.50;;;27.50;97.10;;;;;;6336834;22;20085;-72
2022/08/23 10:06:45;;;;;;;6.00;2.60;;;27.40;97.10;;;;;;6337548;22;20034;-73
2022/08/23 10:09:23;;;;;;;8.25;2.80;;;27.40;97.00;;;;;;6337378;22;20374;-74
2022/08/23 10:11:49;;;;;;;14.13;3.25;;;27.40;96.90;;;;;;6337147;22;20010;-75
2022/08/23 10:14:19;;;;;;;12.88;2.90;;;27.30;96.70;;;;;;6337309;22;20002;-75
2022/08/23 10:17:24;;;;;;;5.45;2.22;;;27.40;97.00;;;;;;6337443;22;19999;-75
2022/08/23 10:20:07;;;;;;;5.13;2.70;;;27.50;96.80;;;;;;6336970;22;20002;-75
2022/08/23 10:22:48;;;;;;;8.10;2.47;;;27.50;96.90;;;;;;6337647;22;20003;-75
2022/08/23 10:25:52;;;;;;;7.05;2.63;;;27.50;96.30;;;;;;6336498;22;20149;-75
2022/08/23 10:31:27;;;;;;;3.83;2.03;;;27.50;96.30;;;;;;6338932;22;20468;-75
2022/08/23 10:34:16;;;;;;;5.00;3.30;;;27.60;96.20;;;;;;6338537;22;19998;-73
2022/08/23 10:37:26;;;;;;;4.32;2.80;;;27.70;96.10;;;;;;6337504;22;20002;-74
2022/08/23 10:40:05;;;;;;;8.93;2.72;;;27.70;95.60;;;;;;6267758;22;20082;-71
2022/08/23 10:42:54;;;;;;;7.03;3.15;;;27.70;95.60;;;;;;6337942;22;20003;-74
2022/08/23 10:45:27;;;;;;;4.07;2.28;;;27.70;95.50;;;;;;6338601;22;20021;-74
2022/08/23 10:48:20;;;;;;;6.55;3.47;;;27.70;95.90;;;;;;6338235;22;20014;-73
2022/08/23 10:50:59;;;;;;;4.03;2.78;;;27.60;95.60;;;;;;6342103;22;20002;-75
2022/08/23 10:53:38;;;;;;;6.15;3.60;;;27.40;96.00;;;;;;6342686;22;20029;-74
2022/08/23 10:56:12;;;;;;;5.65;2.42;;;27.40;96.20;;;;;;6343130;22;20007;-74
2022/08/23 10:59:06;;;;;;;6.75;2.58;;;27.30;96.60;;;;;;6342661;22;19995;-74
2022/08/23 11:01:56;;;;;;;8.20;3.65;;;27.30;96.60;;;;;;6331015;22;20010;-74
2022/08/23 11:04:48;;;;;;;8.82;4.50;;;27.30;96.50;;;;;;6343910;22;20034;-73
2022/08/23 11:07:19;;;;;;;5.15;4.03;;;27.30;96.50;;;;;;6343558;22;20018;-74
2022/08/23 11:10:07;;;;;;;7.80;3.45;;;27.20;96.70;;;;;;6340717;22;20071;-74
2022/08/23 11:12:49;;;;;;;4.93;3.15;;;27.20;97.20;;;;;;6336746;22;20406;-74
2022/08/23 11:15:37;;;;;;;9.98;5.00;;;27.10;97.00;;;;;;6308770;22;20009;-74
2022/08/23 11:18:07;;;;;;;6.35;3.55;;;27.30;96.80;;;;;;6338023;22;20002;-74
2022/08/23 11:20:51;;;;;;;5.22;3.05;;;27.20;97.00;;;;;;6337443;22;20078;-74
2022/08/23 11:23:47;;;;;;;7.15;3.50;;;27.30;97.10;;;;;;6335970;22;20017;-74
2022/08/23 11:26:21;;;;;;;4.20;3.72;;;27.30;96.90;;;;;;6337237;22;20022;-74
2022/08/23 11:28:52;;;;;;;7.68;4.63;;;27.40;96.70;;;;;;6337243;22;20419;-74
2022/08/23 11:31:49;;;;;;;6.18;3.58;;;27.40;95.80;;;;;;6311423;22;20060;-74
2022/08/23 11:34:39;;;;;;;6.75;4.53;;;27.50;96.30;;;;;;6293820;22;19999;-74
2022/08/23 11:37:19;;;;;;;6.65;4.07;;;27.50;96.20;;;;;;6337034;22;20006;-75
2022/08/23 11:40:03;;;;;;;5.95;3.63;;;27.60;96.40;;;;;;6309813;22;20010;-75
2022/08/23 11:42:30;;;;;;;9.02;4.28;;;27.70;96.10;;;;;;6337693;22;20006;-74
2022/08/23 11:44:56;;;;;;;8.43;4.60;;;27.80;95.60;;;;;;6337356;22;20091;-75
2022/08/23 11:47:27;;;;;;;5.53;3.90;;;27.90;95.70;;;;;;6336939;22;20042;-74
2022/08/23 11:51:01;;;;;;;7.35;3.95;;;28.00;95.40;;;;;;6336900;22;20006;-74
2022/08/23 11:53:38;;;;;;;6.70;3.90;;;28.00;95.10;;;;;;6198226;23;20095;-74
2022/08/23 11:56:32;;;;;;;7.30;3.40;;;28.00;95.40;;;;;;6211623;23;20001;-73
2022/08/23 11:59:33;;;;;;;5.25;2.85;;;28.20;95.00;;;;;;6328370;22;20317;-74
2022/08/23 12:02:39;;;;;;;7.47;4.85;;;28.30;95.10;;;;;;6337881;22;20003;-75
2022/08/23 12:05:41;;;;;;;11.35;4.22;;;28.30;94.60;;;;;;6336704;22;20512;-75
2022/08/23 12:08:07;;;;;;;12.70;4.07;;;28.40;95.10;;;;;;6336830;22;20007;-75
2022/08/23 12:10:41;;;;;;;5.65;3.00;;;28.40;95.10;;;;;;6337286;22;20026;-75
2022/08/23 12:13:19;;;;;;;4.35;3.05;;;28.50;95.10;;;;;;6336482;22;20006;-74
2022/08/23 12:16:10;;;;;;;7.78;3.67;;;28.60;94.70;;;;;;6336722;22;20006;-74
2022/08/23 12:18:42;;;;;;;7.20;4.18;;;28.80;94.40;;;;;;6335250;22;20037;-74
2022/08/23 12:21:16;;;;;;;6.65;4.20;;;28.70;94.20;;;;;;6337111;22;19999;-75
2022/08/23 12:23:45;;;;;;;5.13;3.65;;;28.60;94.40;;;;;;6336977;22;20435;-74
2022/08/23 12:26:37;;;;;;;3.78;2.85;;;28.40;94.50;;;;;;6335785;22;20093;-74
2022/08/23 12:29:27;;;;;;;5.20;4.30;;;28.40;94.80;;;;;;6337506;22;20078;-74
2022/08/23 12:32:01;;;;;;;5.75;3.40;;;28.40;94.60;;;;;;6338389;22;19995;-75
2022/08/23 12:35:06;;;;;;;6.28;3.70;;;28.40;94.90;;;;;;6337855;22;20017;-74
2022/08/23 12:37:44;;;;;;;11.10;5.55;;;28.50;94.60;;;;;;6337088;22;20371;-75
2022/08/23 12:40:24;;;;;;;7.65;5.45;;;28.50;94.60;;;;;;6338911;22;20010;-77
2022/08/23 12:42:50;;;;;;;8.73;5.35;;;28.40;94.90;;;;;;6337072;22;20013;-77
2022/08/23 12:45:18;;;;;;;8.68;6.35;;;28.30;94.80;;;;;;6336394;22;19998;-76
2022/08/23 12:47:57;;;;;;;9.07;5.30;;;28.20;95.20;;;;;;6337058;22;20014;-76
2022/08/23 12:50:50;;;;;;;10.70;4.17;;;28.20;95.00;;;;;;6334316;22;20335;-77
2022/08/23 12:53:25;;;;;;;6.68;3.80;;;28.10;95.40;;;;;;6334298;22;19998;-76
2022/08/23 12:55:57;;;;;;;8.52;5.28;;;28.20;95.00;;;;;;6336372;22;20006;-74
2022/08/23 12:58:31;;;;;;;9.07;6.72;;;28.30;94.70;;;;;;6334949;22;20482;-75
2022/08/23 13:00:59;;;;;;;7.38;6.07;;;28.30;94.60;;;;;;6335100;22;20048;-75
2022/08/23 13:03:32;;;;;;;8.98;4.38;;;28.30;94.80;;;;;;6335978;22;19998;-74
2022/08/23 13:06:05;;;;;;;11.07;4.82;;;28.40;94.90;;;;;;6336622;22;20007;-75
2022/08/23 13:08:42;;;;;;;4.70;3.83;;;28.40;94.80;;;;;;6337411;22;20002;-75
2022/08/23 13:11:09;;;;;;;9.50;3.78;;;28.40;94.60;;;;;;6337842;22;20028;-74
2022/08/23 13:13:39;;;;;;;7.85;5.18;;;28.40;94.40;;;;;;6337301;22;20369;-74
2022/08/23 13:16:41;;;;;;;5.82;4.63;;;28.50;94.60;;;;;;6335430;22;20010;-74
2022/08/23 13:19:29;;;;;;;12.98;6.28;;;28.40;94.60;;;;;;6336544;22;19998;-74
2022/08/23 13:22:30;;;;;;;9.93;5.78;;;28.40;95.10;;;;;;6337174;22;20006;-74